createdAt,value
2022-08-22T00:00:38.680Z,17.50
2022-08-22T00:04:35.264Z,17.50
2022-08-22T00:08:26.313Z,17.40
2022-08-22T00:12:19.832Z,17.30
2022-08-22T00:16:10.633Z,17.20
2022-08-22T00:19:57.065Z,17.10
2022-08-22T00:23:44.772Z,17.00
2022-08-22T00:27:34.079Z,17.00
2022-08-22T00:31:24.321Z,16.90
2022-08-22T00:35:16.380Z,16.90
2022-08-22T00:39:08.572Z,16.90
2022-08-22T00:43:34.528Z,16.90
2022-08-22T00:47:37.213Z,16.80
2022-08-22T00:51:49.605Z,16.80
2022-08-22T00:55:45.944Z,16.80
2022-08-22T01:00:03.532Z,16.80
2022-08-22T01:04:05.156Z,16.80
2022-08-22T01:08:05.757Z,16.80
2022-08-22T01:12:08.424Z,16.80
2022-08-22T01:16:09.248Z,16.70
2022-08-22T01:20:21.207Z,16.70
2022-08-22T01:25:05.095Z,16.70
2022-08-22T01:29:28.496Z,16.80
2022-08-22T01:33:47.444Z,16.70
2022-08-22T01:37:59.743Z,16.80
2022-08-22T01:42:04.203Z,16.80
2022-08-22T01:46:20.740Z,16.80
2022-08-22T01:50:13.967Z,16.80
2022-08-22T01:54:05.920Z,16.80
2022-08-22T01:57:54.381Z,16.80
2022-08-22T02:01:54.094Z,16.70
2022-08-22T02:05:47.420Z,16.70
2022-08-22T02:09:42.993Z,16.70
2022-08-22T02:13:46.483Z,16.70
2022-08-22T02:17:32.461Z,16.60
2022-08-22T02:21:22.427Z,16.60
2022-08-22T02:25:13.448Z,16.60
2022-08-22T02:29:01.084Z,16.50
2022-08-22T02:33:04.071Z,16.50
2022-08-22T02:36:50.244Z,16.50
2022-08-22T02:40:39.931Z,16.50
2022-08-22T02:44:32.593Z,16.40
2022-08-22T02:48:27.844Z,16.40
2022-08-22T02:52:19.604Z,16.30
2022-08-22T02:56:10.406Z,16.30
2022-08-22T03:00:32.827Z,16.20
2022-08-22T03:04:33.384Z,16.10
2022-08-22T03:08:24.148Z,16.00
2022-08-22T03:12:19.364Z,15.90
2022-08-22T03:16:10.297Z,15.80
2022-08-22T03:19:58.868Z,15.70
2022-08-22T03:23:47.576Z,15.70
2022-08-22T03:27:42.274Z,15.60
2022-08-22T03:31:26.956Z,15.60
2022-08-22T03:35:12.079Z,15.60
2022-08-22T03:39:17.606Z,15.60
2022-08-22T03:43:31.189Z,15.50
2022-08-22T03:47:29.120Z,15.50
2022-08-22T03:51:36.734Z,15.40
2022-08-22T03:55:33.638Z,15.40
2022-08-22T03:59:58.968Z,15.30
2022-08-22T04:04:23.788Z,15.30
2022-08-22T04:08:49.638Z,15.20
2022-08-22T04:13:11.143Z,15.20
2022-08-22T04:17:10.114Z,15.20
2022-08-22T04:21:33.697Z,15.10
2022-08-22T04:25:22.872Z,15.10
2022-08-22T04:29:14.863Z,15.10
2022-08-22T04:33:06.442Z,15.10
2022-08-22T04:36:55.376Z,15.10
2022-08-22T04:40:44.036Z,15.10
2022-08-22T04:44:34.027Z,15.20
2022-08-22T04:48:24.870Z,15.30
2022-08-22T04:52:19.415Z,15.30
2022-08-22T04:56:11.561Z,15.40
2022-08-22T05:00:00.209Z,15.50
2022-08-22T05:03:50.925Z,15.50
2022-08-22T05:07:37.036Z,15.60
2022-08-22T05:11:23.146Z,15.70
2022-08-22T05:15:11.106Z,15.80
2022-08-22T05:18:59.400Z,16.00
2022-08-22T05:22:44.641Z,16.00
2022-08-22T05:26:29.383Z,16.10
2022-08-22T05:30:16.344Z,16.30
2022-08-22T05:34:05.392Z,16.30
2022-08-22T05:37:51.536Z,16.40
2022-08-22T05:41:37.719Z,16.60
2022-08-22T05:45:20.949Z,16.80
2022-08-22T05:49:05.905Z,17.00
2022-08-22T05:53:06.182Z,17.00
2022-08-22T05:56:54.009Z,17.30
2022-08-22T06:00:41.708Z,17.40
2022-08-22T06:04:31.108Z,17.60
2022-08-22T06:08:21.235Z,17.80
2022-08-22T06:12:15.050Z,18.00
2022-08-22T06:16:11.684Z,18.10
2022-08-22T06:19:56.364Z,18.20
2022-08-22T06:23:45.932Z,18.30
2022-08-22T06:27:31.254Z,18.50
2022-08-22T06:31:18.118Z,18.60
2022-08-22T06:35:07.699Z,18.80
2022-08-22T06:38:58.422Z,19.00
2022-08-22T06:42:44.208Z,19.20
2022-08-22T06:46:29.147Z,19.30
2022-08-22T06:50:22.104Z,19.60
2022-08-22T06:54:12.730Z,19.80
2022-08-22T06:58:01.464Z,19.90
2022-08-22T07:01:50.955Z,20.10
2022-08-22T07:05:39.882Z,20.00
2022-08-22T07:09:26.719Z,20.30
2022-08-22T07:13:16.212Z,20.50
2022-08-22T07:17:01.938Z,20.60
2022-08-22T07:20:54.985Z,20.80
2022-08-22T07:24:38.208Z,21.00
2022-08-22T07:28:50.806Z,21.10
2022-08-22T07:32:50.914Z,21.10
2022-08-22T07:36:41.894Z,21.40
2022-08-22T07:40:30.047Z,21.50
2022-08-22T07:44:20.126Z,21.40
2022-08-22T07:48:19.710Z,21.40
2022-08-22T07:52:13.780Z,21.50
2022-08-22T07:55:58.864Z,21.60
2022-08-22T07:59:58.576Z,21.60
2022-08-22T08:03:41.870Z,21.80
2022-08-22T08:07:30.231Z,22.10
2022-08-22T08:11:15.556Z,22.60
2022-08-22T08:14:58.913Z,22.80
2022-08-22T08:18:42.064Z,23.00
2022-08-22T08:22:29.773Z,23.20
2022-08-22T08:26:17.250Z,23.20
2022-08-22T08:30:03.645Z,22.80
2022-08-22T08:33:51.154Z,22.50
2022-08-22T08:37:43.048Z,22.80
2022-08-22T08:41:53.744Z,22.90
2022-08-22T08:45:51.638Z,23.20
2022-08-22T08:49:50.450Z,22.90
2022-08-22T08:54:15.725Z,22.80
2022-08-22T08:58:13.796Z,23.10
2022-08-22T09:02:23.659Z,23.10
2022-08-22T09:06:52.845Z,23.10
2022-08-22T09:15:44.490Z,23.60
2022-08-22T09:20:21.679Z,24.00
2022-08-22T09:24:36.408Z,24.20
2022-08-22T09:28:28.219Z,24.30
2022-08-22T09:32:20.968Z,24.60
2022-08-22T09:36:15.684Z,24.80
2022-08-22T09:40:04.192Z,25.00
2022-08-22T09:40:15.394Z,23.30
2022-08-22T09:43:55.688Z,25.20
2022-08-22T09:47:48.468Z,25.20
2022-08-22T09:51:39.696Z,24.80
2022-08-22T09:55:38.401Z,24.30
2022-08-22T09:59:36.797Z,24.20
2022-08-22T10:03:32.536Z,24.00
2022-08-22T10:07:52.684Z,23.80
2022-08-22T10:11:42.447Z,23.70
2022-08-22T10:15:36.598Z,23.60
2022-08-22T10:19:26.252Z,23.30
2022-08-22T10:23:21.059Z,23.20
2022-08-22T10:27:12.260Z,23.30
2022-08-22T10:31:12.929Z,23.30
2022-08-22T10:35:03.060Z,23.30
2022-08-22T10:38:51.951Z,23.40
2022-08-22T10:42:39.864Z,23.40
2022-08-22T10:46:35.339Z,23.30
2022-08-22T10:50:23.589Z,23.30
2022-08-22T10:54:40.389Z,23.30
2022-08-22T10:58:28.497Z,23.50
2022-08-22T11:02:26.086Z,23.60
2022-08-22T11:06:15.380Z,23.80
2022-08-22T11:10:06.410Z,24.30
2022-08-22T11:14:06.774Z,24.50
2022-08-22T11:18:23.668Z,24.80
2022-08-22T11:22:18.955Z,24.70
2022-08-22T11:26:13.231Z,24.50
2022-08-22T11:30:03.264Z,24.20
2022-08-22T11:33:58.164Z,24.20
2022-08-22T11:37:51.364Z,24.60
2022-08-22T11:41:44.374Z,25.00
2022-08-22T11:45:41.288Z,25.60
2022-08-22T11:49:38.476Z,26.20
2022-08-22T11:53:33.796Z,26.60
2022-08-22T11:57:21.641Z,26.90
2022-08-22T12:01:17.040Z,27.20
2022-08-22T12:05:11.801Z,27.70
2022-08-22T12:09:31.864Z,27.20
2022-08-22T12:13:36.465Z,27.50
2022-08-22T12:17:50.969Z,27.10
2022-08-22T12:22:03.050Z,26.90
2022-08-22T12:25:58.969Z,26.70
2022-08-22T12:29:52.988Z,26.00
2022-08-22T12:33:58.964Z,25.80
2022-08-22T12:38:26.408Z,25.50
2022-08-22T12:42:31.572Z,25.40
2022-08-22T12:46:18.677Z,25.20
2022-08-22T12:50:18.631Z,25.40
2022-08-22T12:54:31.790Z,25.20
2022-08-22T12:58:20.366Z,25.10
2022-08-22T13:02:14.821Z,25.20
2022-08-22T13:06:00.368Z,25.90
2022-08-22T13:09:50.153Z,26.00
2022-08-22T13:13:39.325Z,26.20
2022-08-22T13:17:25.353Z,26.70
2022-08-22T13:21:15.058Z,26.70
2022-08-22T13:25:04.917Z,26.80
2022-08-22T13:29:00.287Z,26.90
2022-08-22T13:32:56.840Z,27.20
2022-08-22T13:36:51.741Z,27.80
2022-08-22T13:40:38.684Z,27.70
2022-08-22T13:44:25.629Z,28.40
2022-08-22T13:48:12.804Z,27.90
2022-08-22T13:52:28.908Z,28.50
2022-08-22T13:56:21.095Z,28.80
2022-08-22T14:00:11.642Z,27.70
2022-08-22T14:04:30.987Z,27.60
2022-08-22T14:08:23.395Z,27.00
2022-08-22T14:12:17.987Z,26.80
2022-08-22T14:16:02.732Z,26.90
2022-08-22T14:19:52.820Z,26.90
2022-08-22T14:23:37.018Z,26.90
2022-08-22T14:27:32.292Z,26.80
2022-08-22T14:31:23.103Z,26.80
2022-08-22T14:35:23.066Z,26.50
2022-08-22T14:39:34.862Z,26.70
2022-08-22T14:43:40.490Z,26.40
2022-08-22T14:47:51.066Z,26.20
2022-08-22T14:51:33.984Z,26.20
2022-08-22T14:55:21.158Z,26.30
2022-08-22T14:59:15.004Z,26.00
2022-08-22T15:03:15.505Z,26.10
2022-08-22T15:07:02.244Z,26.50
2022-08-22T15:10:44.816Z,27.10
2022-08-22T15:14:52.431Z,27.40
2022-08-22T15:18:37.164Z,27.60
2022-08-22T15:22:25.822Z,27.90
2022-08-22T15:26:17.764Z,27.60
2022-08-22T15:30:06.652Z,27.70
2022-08-22T15:34:10.281Z,28.00
2022-08-22T15:38:01.418Z,28.20
2022-08-22T15:41:47.788Z,28.20
2022-08-22T15:45:34.891Z,28.20
2022-08-22T15:49:28.572Z,27.90
2022-08-22T15:53:14.893Z,28.10
2022-08-22T15:57:16.373Z,28.10
2022-08-22T16:01:18.775Z,27.60
2022-08-22T16:05:22.915Z,27.40
2022-08-22T16:09:05.179Z,27.20
2022-08-22T16:13:10.097Z,27.10
2022-08-22T16:17:03.571Z,27.00
2022-08-22T16:20:56.961Z,26.50
2022-08-22T16:25:10.553Z,26.50
2022-08-22T16:28:58.902Z,26.60
2022-08-22T16:32:54.284Z,26.60
2022-08-22T16:36:45.154Z,26.60
2022-08-22T16:40:28.340Z,26.30
2022-08-22T16:44:33.353Z,26.30
2022-08-22T16:48:35.203Z,26.60
2022-08-22T16:52:43.782Z,26.70
2022-08-22T16:56:30.253Z,27.00
2022-08-22T17:00:22.802Z,26.90
2022-08-22T17:04:18.287Z,26.40
2022-08-22T17:08:17.337Z,26.10
2022-08-22T17:12:08.300Z,25.90
2022-08-22T17:16:15.518Z,26.10
2022-08-22T17:20:13.246Z,25.80
2022-08-22T17:24:04.986Z,25.40
2022-08-22T17:27:53.111Z,25.10
2022-08-22T17:31:43.073Z,24.80
2022-08-22T17:35:46.559Z,24.80
2022-08-22T17:39:43.602Z,24.60
2022-08-22T17:43:48.873Z,24.30
2022-08-22T17:47:40.282Z,24.10
2022-08-22T17:51:29.483Z,24.00
2022-08-22T17:55:17.975Z,23.90
2022-08-22T17:59:06.901Z,23.80
2022-08-22T18:02:55.089Z,23.70
2022-08-22T18:06:48.078Z,23.60
2022-08-22T18:10:46.525Z,23.50
2022-08-22T18:14:36.405Z,23.30
2022-08-22T18:18:31.423Z,23.20
2022-08-22T18:22:24.755Z,22.90
2022-08-22T18:26:20.405Z,22.80
2022-08-22T18:30:15.883Z,22.60
2022-08-22T18:34:04.093Z,22.40
2022-08-22T18:37:57.955Z,22.20
2022-08-22T18:41:49.258Z,22.00
2022-08-22T18:46:04.177Z,21.80
2022-08-22T18:49:53.914Z,21.60
2022-08-22T18:53:47.042Z,21.40
2022-08-22T18:57:44.564Z,21.30
2022-08-22T19:01:42.296Z,21.10
2022-08-22T19:05:51.164Z,21.00
2022-08-22T19:09:53.629Z,21.00
2022-08-22T19:13:53.236Z,20.80
2022-08-22T19:18:03.610Z,20.80
2022-08-22T19:22:22.550Z,20.70
2022-08-22T19:26:29.461Z,20.60
2022-08-22T19:30:39.300Z,20.50
2022-08-22T19:34:38.600Z,20.40
2022-08-22T19:38:53.445Z,20.30
2022-08-22T19:42:39.898Z,20.30
2022-08-22T19:46:37.260Z,20.10
2022-08-22T19:50:31.256Z,20.10
2022-08-22T19:54:21.966Z,20.00
2022-08-22T19:58:16.084Z,20.00
2022-08-22T20:02:08.947Z,19.90
2022-08-22T20:06:05.461Z,19.90
2022-08-22T20:10:02.122Z,19.90
2022-08-22T20:13:46.523Z,19.80
2022-08-22T20:17:41.604Z,19.70
2022-08-22T20:21:50.219Z,19.70
2022-08-22T20:25:44.205Z,19.70
2022-08-22T20:29:31.824Z,19.70
2022-08-22T20:33:20.636Z,19.70
2022-08-22T20:37:27.173Z,19.60
2022-08-22T20:41:21.347Z,19.50
2022-08-22T20:45:12.136Z,19.40
2022-08-22T20:48:57.214Z,19.30
2022-08-22T20:52:54.309Z,19.20
2022-08-22T20:56:53.147Z,19.10
2022-08-22T21:00:48.403Z,19.10
2022-08-22T21:04:42.818Z,19.00
2022-08-22T21:08:27.372Z,19.00
2022-08-22T21:12:11.150Z,19.00
2022-08-22T21:15:58.339Z,18.90
2022-08-22T21:19:40.930Z,18.90
2022-08-22T21:23:23.758Z,18.90
2022-08-22T21:27:07.552Z,18.90
2022-08-22T21:30:50.084Z,18.90
2022-08-22T21:34:37.925Z,18.90
2022-08-22T21:38:20.395Z,18.90
2022-08-22T21:42:11.610Z,18.90
2022-08-22T21:45:54.407Z,18.80
2022-08-22T21:49:58.572Z,18.60
2022-08-22T21:53:41.341Z,18.60
2022-08-22T21:57:36.472Z,18.60
2022-08-22T22:01:31.574Z,18.50
2022-08-22T22:05:18.536Z,18.40
2022-08-22T22:09:01.236Z,18.20
2022-08-22T22:12:46.260Z,18.20
2022-08-22T22:16:31.487Z,18.20
2022-08-22T22:20:16.674Z,18.20
2022-08-22T22:23:59.483Z,18.30
2022-08-22T22:27:42.488Z,18.40
2022-08-22T22:31:25.230Z,18.40
2022-08-22T22:35:09.231Z,18.50
2022-08-22T22:52:55.248Z,17.90
2022-08-22T22:56:38.303Z,17.90
2022-08-22T23:00:20.757Z,17.90
2022-08-22T23:04:06.219Z,17.90
2022-08-22T23:07:48.705Z,18.00
2022-08-22T23:11:32.946Z,18.00
2022-08-22T23:15:18.705Z,17.90
2022-08-22T23:19:01.591Z,17.80
2022-08-22T23:22:45.583Z,17.80
2022-08-22T23:26:28.973Z,17.70
2022-08-22T23:30:13.850Z,17.50
2022-08-22T23:33:57.953Z,17.50
2022-08-22T23:37:40.432Z,17.40
2022-08-22T23:41:23.098Z,17.40
2022-08-22T23:45:06.461Z,17.30
2022-08-22T23:48:50.774Z,17.30
2022-08-22T23:52:33.257Z,17.40
2022-08-22T23:56:19.284Z,17.40
